Terminal Aerodrome Forecast
Issued by NWS Jackson, KY

Home | Current Version | Previous Version | Text Only | Print | Product List | Glossary On
Versions: 1 2 3 4 5 6 7 8 9 10 11 12 13
000
FTUS43 KJKL 051122
TAFLOZ
TAF
KLOZ 051122Z 0512/0612 00000KT 6SM BR SCT001 BKN120
      TEMPO 0512/0514 5SM BR
     FM051400 VRB05KT P6SM SCT050
     FM051700 VRB06KT P6SM VCTS BKN050CB
     FM060500 VRB06KT P6SM VCTS BKN040CB
      TEMPO 0605/0609 2SM TSRA BR BKN030CB=

USA.gov is the U.S. government's official web portal to all federal, state and local government web resources and services.